sensor_id;sensor_type;location;lat;lon;timestamp;P1;durP1;ratioP1;P2;durP2;ratioP2
23119;SDS011;11729;50.836;4.330;2022-10-28T00:00:45;12.88;;;8.20;;
23119;SDS011;11729;50.836;4.330;2022-10-28T00:03:11;21.88;;;8.25;;
23119;SDS011;11729;50.836;4.330;2022-10-28T00:05:36;23.73;;;8.73;;
23119;SDS011;11729;50.836;4.330;2022-10-28T00:08:02;16.48;;;7.72;;
23119;SDS011;11729;50.836;4.330;2022-10-28T00:10:27;14.55;;;7.65;;
23119;SDS011;11729;50.836;4.330;2022-10-28T00:12:53;17.02;;;8.20;;
23119;SDS011;11729;50.836;4.330;2022-10-28T00:15:19;12.40;;;7.97;;
23119;SDS011;11729;50.836;4.330;2022-10-28T00:17:44;16.10;;;8.07;;
23119;SDS011;11729;50.836;4.330;2022-10-28T00:20:10;13.05;;;7.60;;
23119;SDS011;11729;50.836;4.330;2022-10-28T00:22:36;15.57;;;8.38;;
23119;SDS011;11729;50.836;4.330;2022-10-28T00:25:01;22.48;;;8.13;;
23119;SDS011;11729;50.836;4.330;2022-10-28T00:27:27;11.82;;;8.07;;
23119;SDS011;11729;50.836;4.330;2022-10-28T00:29:53;17.75;;;7.75;;
23119;SDS011;11729;50.836;4.330;2022-10-28T00:32:19;19.30;;;8.10;;
23119;SDS011;11729;50.836;4.330;2022-10-28T00:34:45;11.35;;;7.20;;
23119;SDS011;11729;50.836;4.330;2022-10-28T00:37:11;14.70;;;8.27;;
23119;SDS011;11729;50.836;4.330;2022-10-28T00:39:36;19.90;;;8.32;;
23119;SDS011;11729;50.836;4.330;2022-10-28T00:42:02;21.70;;;8.32;;
23119;SDS011;11729;50.836;4.330;2022-10-28T00:47:29;17.55;;;7.75;;
23119;SDS011;11729;50.836;4.330;2022-10-28T00:50:06;14.73;;;8.00;;
23119;SDS011;11729;50.836;4.330;2022-10-28T00:52:38;19.08;;;8.23;;
23119;SDS011;11729;50.836;4.330;2022-10-28T00:55:05;21.02;;;8.45;;
23119;SDS011;11729;50.836;4.330;2022-10-28T00:57:33;11.80;;;7.40;;
23119;SDS011;11729;50.836;4.330;2022-10-28T01:00:01;18.55;;;7.93;;
23119;SDS011;11729;50.836;4.330;2022-10-28T01:02:30;10.98;;;7.40;;
23119;SDS011;11729;50.836;4.330;2022-10-28T01:05:01;16.08;;;8.07;;
23119;SDS011;11729;50.836;4.330;2022-10-28T01:07:27;15.63;;;7.70;;
23119;SDS011;11729;50.836;4.330;2022-10-28T01:09:54;15.13;;;8.25;;
23119;SDS011;11729;50.836;4.330;2022-10-28T01:23:23;18.58;;;7.60;;
23119;SDS011;11729;50.836;4.330;2022-10-28T01:25:57;16.38;;;7.30;;
23119;SDS011;11729;50.836;4.330;2022-10-28T01:31:40;17.05;;;7.68;;
23119;SDS011;11729;50.836;4.330;2022-10-28T01:42:28;17.17;;;7.55;;
23119;SDS011;11729;50.836;4.330;2022-10-28T01:45:24;15.35;;;7.88;;
23119;SDS011;11729;50.836;4.330;2022-10-28T01:47:56;14.43;;;7.32;;
23119;SDS011;11729;50.836;4.330;2022-10-28T01:50:27;15.88;;;7.78;;
23119;SDS011;11729;50.836;4.330;2022-10-28T01:53:08;13.65;;;7.30;;
23119;SDS011;11729;50.836;4.330;2022-10-28T01:55:37;16.15;;;7.95;;
23119;SDS011;11729;50.836;4.330;2022-10-28T01:58:10;15.82;;;7.22;;
23119;SDS011;11729;50.836;4.330;2022-10-28T02:00:39;15.60;;;8.10;;
23119;SDS011;11729;50.836;4.330;2022-10-28T02:03:07;16.35;;;7.75;;
23119;SDS011;11729;50.836;4.330;2022-10-28T02:08:06;15.63;;;8.15;;
23119;SDS011;11729;50.836;4.330;2022-10-28T02:11:33;19.83;;;8.27;;
23119;SDS011;11729;50.836;4.330;2022-10-28T02:27:07;16.50;;;7.47;;
23119;SDS011;11729;50.836;4.330;2022-10-28T02:29:46;20.75;;;8.00;;
23119;SDS011;11729;50.836;4.330;2022-10-28T02:32:18;14.57;;;7.85;;
23119;SDS011;11729;50.836;4.330;2022-10-28T02:34:47;15.55;;;7.80;;
23119;SDS011;11729;50.836;4.330;2022-10-28T02:37:18;16.95;;;7.80;;
23119;SDS011;11729;50.836;4.330;2022-10-28T02:39:48;22.17;;;8.48;;
23119;SDS011;11729;50.836;4.330;2022-10-28T02:42:18;17.35;;;7.95;;
23119;SDS011;11729;50.836;4.330;2022-10-28T02:44:48;16.27;;;8.10;;
23119;SDS011;11729;50.836;4.330;2022-10-28T02:47:19;17.23;;;7.60;;
23119;SDS011;11729;50.836;4.330;2022-10-28T02:49:51;17.27;;;8.05;;
23119;SDS011;11729;50.836;4.330;2022-10-28T02:52:21;24.85;;;8.30;;
23119;SDS011;11729;50.836;4.330;2022-10-28T02:54:54;20.33;;;7.97;;
23119;SDS011;11729;50.836;4.330;2022-10-28T02:57:30;18.25;;;8.00;;
23119;SDS011;11729;50.836;4.330;2022-10-28T02:59:59;18.02;;;8.07;;
23119;SDS011;11729;50.836;4.330;2022-10-28T03:02:29;16.38;;;7.70;;
23119;SDS011;11729;50.836;4.330;2022-10-28T03:04:54;21.70;;;8.05;;
23119;SDS011;11729;50.836;4.330;2022-10-28T03:07:20;15.23;;;8.15;;
23119;SDS011;11729;50.836;4.330;2022-10-28T03:09:46;16.83;;;8.00;;
23119;SDS011;11729;50.836;4.330;2022-10-28T03:12:11;16.92;;;7.88;;
23119;SDS011;11729;50.836;4.330;2022-10-28T03:14:37;18.73;;;8.18;;
23119;SDS011;11729;50.836;4.330;2022-10-28T03:17:02;16.45;;;7.68;;
23119;SDS011;11729;50.836;4.330;2022-10-28T03:19:28;22.42;;;8.10;;
23119;SDS011;11729;50.836;4.330;2022-10-28T03:21:53;15.93;;;8.23;;
23119;SDS011;11729;50.836;4.330;2022-10-28T03:24:19;16.10;;;7.65;;
23119;SDS011;11729;50.836;4.330;2022-10-28T03:26:45;17.05;;;7.75;;
23119;SDS011;11729;50.836;4.330;2022-10-28T03:29:10;14.68;;;7.90;;
23119;SDS011;11729;50.836;4.330;2022-10-28T03:31:36;17.95;;;8.43;;
23119;SDS011;11729;50.836;4.330;2022-10-28T03:34:01;20.05;;;8.48;;
23119;SDS011;11729;50.836;4.330;2022-10-28T03:36:27;18.73;;;8.25;;
23119;SDS011;11729;50.836;4.330;2022-10-28T03:38:52;19.75;;;8.70;;
23119;SDS011;11729;50.836;4.330;2022-10-28T03:41:18;21.23;;;7.57;;
23119;SDS011;11729;50.836;4.330;2022-10-28T03:43:43;15.38;;;7.65;;
23119;SDS011;11729;50.836;4.330;2022-10-28T03:46:10;21.02;;;7.75;;
23119;SDS011;11729;50.836;4.330;2022-10-28T03:48:35;16.02;;;8.30;;
23119;SDS011;11729;50.836;4.330;2022-10-28T03:51:01;16.60;;;8.20;;
23119;SDS011;11729;50.836;4.330;2022-10-28T03:53:27;16.23;;;8.10;;
23119;SDS011;11729;50.836;4.330;2022-10-28T03:55:53;14.93;;;8.32;;
23119;SDS011;11729;50.836;4.330;2022-10-28T03:58:22;24.27;;;8.05;;
23119;SDS011;11729;50.836;4.330;2022-10-28T04:00:52;19.98;;;8.15;;
23119;SDS011;11729;50.836;4.330;2022-10-28T04:03:19;20.85;;;8.63;;
23119;SDS011;11729;50.836;4.330;2022-10-28T04:05:45;14.25;;;8.23;;
23119;SDS011;11729;50.836;4.330;2022-10-28T04:08:15;23.75;;;8.32;;
23119;SDS011;11729;50.836;4.330;2022-10-28T04:10:41;19.98;;;8.02;;
23119;SDS011;11729;50.836;4.330;2022-10-28T04:13:08;16.75;;;8.40;;
23119;SDS011;11729;50.836;4.330;2022-10-28T04:15:33;21.67;;;8.43;;
23119;SDS011;11729;50.836;4.330;2022-10-28T04:17:59;19.20;;;8.98;;
23119;SDS011;11729;50.836;4.330;2022-10-28T04:20:25;31.20;;;13.93;;
23119;SDS011;11729;50.836;4.330;2022-10-28T04:22:51;24.60;;;9.43;;
23119;SDS011;11729;50.836;4.330;2022-10-28T04:25:18;22.80;;;12.97;;
23119;SDS011;11729;50.836;4.330;2022-10-28T04:27:47;19.00;;;8.40;;
23119;SDS011;11729;50.836;4.330;2022-10-28T04:30:13;16.38;;;8.48;;
23119;SDS011;11729;50.836;4.330;2022-10-28T04:32:40;21.15;;;8.70;;
23119;SDS011;11729;50.836;4.330;2022-10-28T04:35:06;15.15;;;7.95;;
23119;SDS011;11729;50.836;4.330;2022-10-28T04:37:32;17.83;;;8.23;;
23119;SDS011;11729;50.836;4.330;2022-10-28T04:39:58;17.77;;;8.07;;
23119;SDS011;11729;50.836;4.330;2022-10-28T04:42:25;15.18;;;8.35;;
23119;SDS011;11729;50.836;4.330;2022-10-28T04:44:51;20.00;;;9.02;;
23119;SDS011;11729;50.836;4.330;2022-10-28T04:47:17;23.17;;;8.60;;
23119;SDS011;11729;50.836;4.330;2022-10-28T04:49:42;14.13;;;8.57;;
23119;SDS011;11729;50.836;4.330;2022-10-28T04:52:08;20.83;;;7.80;;
23119;SDS011;11729;50.836;4.330;2022-10-28T04:54:34;16.73;;;8.05;;
23119;SDS011;11729;50.836;4.330;2022-10-28T04:57:00;20.92;;;9.00;;
23119;SDS011;11729;50.836;4.330;2022-10-28T04:59:25;21.02;;;8.70;;
23119;SDS011;11729;50.836;4.330;2022-10-28T05:01:51;15.25;;;8.75;;
23119;SDS011;11729;50.836;4.330;2022-10-28T05:04:17;18.10;;;8.75;;
23119;SDS011;11729;50.836;4.330;2022-10-28T05:06:42;19.70;;;8.50;;
23119;SDS011;11729;50.836;4.330;2022-10-28T05:09:10;16.83;;;8.77;;
23119;SDS011;11729;50.836;4.330;2022-10-28T05:11:36;21.77;;;9.35;;
23119;SDS011;11729;50.836;4.330;2022-10-28T05:14:02;36.55;;;17.27;;
23119;SDS011;11729;50.836;4.330;2022-10-28T05:16:28;23.55;;;10.90;;
23119;SDS011;11729;50.836;4.330;2022-10-28T05:18:53;16.95;;;9.80;;
23119;SDS011;11729;50.836;4.330;2022-10-28T05:21:20;17.95;;;8.98;;
23119;SDS011;11729;50.836;4.330;2022-10-28T05:23:45;22.98;;;9.50;;
23119;SDS011;11729;50.836;4.330;2022-10-28T05:26:11;31.35;;;9.45;;
23119;SDS011;11729;50.836;4.330;2022-10-28T05:28:37;21.42;;;9.13;;
23119;SDS011;11729;50.836;4.330;2022-10-28T05:31:03;18.42;;;8.57;;
23119;SDS011;11729;50.836;4.330;2022-10-28T05:33:29;18.58;;;8.70;;
23119;SDS011;11729;50.836;4.330;2022-10-28T05:35:57;15.93;;;8.77;;
23119;SDS011;11729;50.836;4.330;2022-10-28T05:38:22;22.40;;;9.02;;
23119;SDS011;11729;50.836;4.330;2022-10-28T05:40:48;24.25;;;9.30;;
23119;SDS011;11729;50.836;4.330;2022-10-28T05:43:14;21.70;;;8.82;;
23119;SDS011;11729;50.836;4.330;2022-10-28T05:45:39;19.48;;;8.38;;
23119;SDS011;11729;50.836;4.330;2022-10-28T05:48:05;16.05;;;9.65;;
23119;SDS011;11729;50.836;4.330;2022-10-28T05:50:31;19.60;;;9.05;;
23119;SDS011;11729;50.836;4.330;2022-10-28T05:52:57;22.23;;;9.32;;
23119;SDS011;11729;50.836;4.330;2022-10-28T05:55:23;29.08;;;9.10;;
23119;SDS011;11729;50.836;4.330;2022-10-28T05:57:52;25.73;;;9.50;;
23119;SDS011;11729;50.836;4.330;2022-10-28T06:00:20;29.10;;;9.20;;
23119;SDS011;11729;50.836;4.330;2022-10-28T06:02:47;25.25;;;9.20;;
23119;SDS011;11729;50.836;4.330;2022-10-28T06:05:13;28.25;;;9.23;;
23119;SDS011;11729;50.836;4.330;2022-10-28T06:07:39;17.10;;;8.32;;
23119;SDS011;11729;50.836;4.330;2022-10-28T06:10:06;21.75;;;9.43;;
23119;SDS011;11729;50.836;4.330;2022-10-28T06:12:33;26.20;;;13.70;;
23119;SDS011;11729;50.836;4.330;2022-10-28T06:14:59;37.40;;;20.92;;
23119;SDS011;11729;50.836;4.330;2022-10-28T06:17:24;24.33;;;14.52;;
23119;SDS011;11729;50.836;4.330;2022-10-28T06:19:50;25.88;;;12.05;;
23119;SDS011;11729;50.836;4.330;2022-10-28T06:22:16;15.10;;;9.80;;
23119;SDS011;11729;50.836;4.330;2022-10-28T06:24:41;18.27;;;9.20;;
23119;SDS011;11729;50.836;4.330;2022-10-28T06:27:07;23.50;;;9.45;;
23119;SDS011;11729;50.836;4.330;2022-10-28T06:29:33;23.85;;;9.27;;
23119;SDS011;11729;50.836;4.330;2022-10-28T06:31:59;14.93;;;9.20;;
23119;SDS011;11729;50.836;4.330;2022-10-28T06:34:24;18.55;;;8.43;;
23119;SDS011;11729;50.836;4.330;2022-10-28T06:36:50;21.48;;;9.27;;
23119;SDS011;11729;50.836;4.330;2022-10-28T06:39:16;26.65;;;9.18;;
23119;SDS011;11729;50.836;4.330;2022-10-28T06:41:42;21.17;;;9.15;;
23119;SDS011;11729;50.836;4.330;2022-10-28T06:44:07;20.77;;;9.00;;
23119;SDS011;11729;50.836;4.330;2022-10-28T06:46:33;19.25;;;8.88;;
23119;SDS011;11729;50.836;4.330;2022-10-28T06:48:59;18.55;;;8.35;;
23119;SDS011;11729;50.836;4.330;2022-10-28T06:53:53;22.52;;;8.80;;
23119;SDS011;11729;50.836;4.330;2022-10-28T06:56:19;26.95;;;9.52;;
23119;SDS011;11729;50.836;4.330;2022-10-28T06:58:48;20.83;;;8.75;;
23119;SDS011;11729;50.836;4.330;2022-10-28T07:01:15;18.50;;;8.82;;
23119;SDS011;11729;50.836;4.330;2022-10-28T07:03:41;22.02;;;9.00;;
23119;SDS011;11729;50.836;4.330;2022-10-28T07:06:07;20.63;;;9.15;;
23119;SDS011;11729;50.836;4.330;2022-10-28T07:08:32;21.15;;;8.18;;
23119;SDS011;11729;50.836;4.330;2022-10-28T07:10:58;19.63;;;9.20;;
23119;SDS011;11729;50.836;4.330;2022-10-28T07:13:24;23.45;;;9.80;;
23119;SDS011;11729;50.836;4.330;2022-10-28T07:15:53;26.35;;;10.05;;
23119;SDS011;11729;50.836;4.330;2022-10-28T07:18:21;23.75;;;9.20;;
23119;SDS011;11729;50.836;4.330;2022-10-28T07:20:47;37.90;;;9.52;;
23119;SDS011;11729;50.836;4.330;2022-10-28T07:23:13;33.47;;;9.75;;
23119;SDS011;11729;50.836;4.330;2022-10-28T07:25:39;27.98;;;9.05;;
23119;SDS011;11729;50.836;4.330;2022-10-28T07:28:05;23.85;;;8.80;;
23119;SDS011;11729;50.836;4.330;2022-10-28T07:30:31;35.05;;;10.00;;
23119;SDS011;11729;50.836;4.330;2022-10-28T07:32:56;38.35;;;10.68;;
23119;SDS011;11729;50.836;4.330;2022-10-28T07:35:25;22.25;;;8.93;;
23119;SDS011;11729;50.836;4.330;2022-10-28T07:37:51;22.20;;;9.45;;
23119;SDS011;11729;50.836;4.330;2022-10-28T07:40:19;21.17;;;9.05;;
23119;SDS011;11729;50.836;4.330;2022-10-28T07:45:10;20.08;;;9.13;;
23119;SDS011;11729;50.836;4.330;2022-10-28T07:47:36;19.58;;;9.07;;
23119;SDS011;11729;50.836;4.330;2022-10-28T07:50:02;20.63;;;9.15;;
23119;SDS011;11729;50.836;4.330;2022-10-28T07:52:29;26.08;;;8.60;;
23119;SDS011;11729;50.836;4.330;2022-10-28T07:54:55;32.95;;;9.15;;
23119;SDS011;11729;50.836;4.330;2022-10-28T07:57:21;23.73;;;9.27;;
23119;SDS011;11729;50.836;4.330;2022-10-28T07:59:46;26.77;;;8.98;;
23119;SDS011;11729;50.836;4.330;2022-10-28T08:02:19;30.30;;;9.40;;
23119;SDS011;11729;50.836;4.330;2022-10-28T08:04:46;27.92;;;8.65;;
23119;SDS011;11729;50.836;4.330;2022-10-28T08:07:12;18.10;;;8.75;;
23119;SDS011;11729;50.836;4.330;2022-10-28T08:09:39;25.02;;;9.05;;
23119;SDS011;11729;50.836;4.330;2022-10-28T08:12:05;27.42;;;9.10;;
23119;SDS011;11729;50.836;4.330;2022-10-28T08:14:32;22.88;;;8.07;;
23119;SDS011;11729;50.836;4.330;2022-10-28T08:16:58;20.85;;;8.73;;
23119;SDS011;11729;50.836;4.330;2022-10-28T08:19:24;24.35;;;8.75;;
23119;SDS011;11729;50.836;4.330;2022-10-28T08:21:50;17.60;;;8.82;;
23119;SDS011;11729;50.836;4.330;2022-10-28T08:24:16;27.02;;;9.50;;
23119;SDS011;11729;50.836;4.330;2022-10-28T08:26:41;19.08;;;9.00;;
23119;SDS011;11729;50.836;4.330;2022-10-28T08:29:08;23.90;;;9.13;;
23119;SDS011;11729;50.836;4.330;2022-10-28T08:31:35;21.95;;;8.35;;
23119;SDS011;11729;50.836;4.330;2022-10-28T08:34:01;20.20;;;8.50;;
23119;SDS011;11729;50.836;4.330;2022-10-28T08:36:27;25.35;;;9.23;;
23119;SDS011;11729;50.836;4.330;2022-10-28T08:38:52;23.10;;;8.73;;
23119;SDS011;11729;50.836;4.330;2022-10-28T08:41:29;25.63;;;8.70;;
23119;SDS011;11729;50.836;4.330;2022-10-28T08:49:31;26.08;;;8.70;;
23119;SDS011;11729;50.836;4.330;2022-10-28T08:52:07;18.40;;;8.63;;
23119;SDS011;11729;50.836;4.330;2022-10-28T08:54:44;25.20;;;9.02;;
23119;SDS011;11729;50.836;4.330;2022-10-28T08:57:19;36.85;;;9.93;;
23119;SDS011;11729;50.836;4.330;2022-10-28T08:59:50;30.50;;;9.30;;
23119;SDS011;11729;50.836;4.330;2022-10-28T09:02:21;25.73;;;8.98;;
23119;SDS011;11729;50.836;4.330;2022-10-28T09:05:34;25.67;;;8.82;;
23119;SDS011;11729;50.836;4.330;2022-10-28T09:07:47;21.48;;;8.48;;
23119;SDS011;11729;50.836;4.330;2022-10-28T09:10:14;23.00;;;8.82;;
23119;SDS011;11729;50.836;4.330;2022-10-28T09:13:00;30.88;;;9.25;;
23119;SDS011;11729;50.836;4.330;2022-10-28T09:15:37;24.35;;;9.68;;
23119;SDS011;11729;50.836;4.330;2022-10-28T09:18:20;26.58;;;9.32;;
23119;SDS011;11729;50.836;4.330;2022-10-28T09:20:56;30.43;;;10.10;;
23119;SDS011;11729;50.836;4.330;2022-10-28T09:23:28;27.45;;;11.00;;
23119;SDS011;11729;50.836;4.330;2022-10-28T09:36:54;24.38;;;10.77;;
23119;SDS011;11729;50.836;4.330;2022-10-28T09:39:48;28.92;;;10.25;;
23119;SDS011;11729;50.836;4.330;2022-10-28T09:42:18;26.55;;;9.63;;
23119;SDS011;11729;50.836;4.330;2022-10-28T09:44:53;27.02;;;10.38;;
23119;SDS011;11729;50.836;4.330;2022-10-28T09:47:28;27.85;;;10.27;;
23119;SDS011;11729;50.836;4.330;2022-10-28T09:49:59;30.15;;;9.30;;
23119;SDS011;11729;50.836;4.330;2022-10-28T09:52:29;29.42;;;9.77;;
23119;SDS011;11729;50.836;4.330;2022-10-28T09:55:14;28.88;;;9.60;;
23119;SDS011;11729;50.836;4.330;2022-10-28T09:57:44;21.70;;;9.75;;
23119;SDS011;11729;50.836;4.330;2022-10-28T10:00:11;19.67;;;9.80;;
23119;SDS011;11729;50.836;4.330;2022-10-28T10:02:38;34.47;;;9.60;;
23119;SDS011;11729;50.836;4.330;2022-10-28T10:05:25;25.25;;;10.27;;
23119;SDS011;11729;50.836;4.330;2022-10-28T10:07:51;22.50;;;9.05;;
23119;SDS011;11729;50.836;4.330;2022-10-28T10:12:52;24.42;;;11.23;;
23119;SDS011;11729;50.836;4.330;2022-10-28T10:15:32;24.83;;;9.02;;
23119;SDS011;11729;50.836;4.330;2022-10-28T10:18:03;23.63;;;8.98;;
23119;SDS011;11729;50.836;4.330;2022-10-28T10:26:18;21.05;;;8.00;;
23119;SDS011;11729;50.836;4.330;2022-10-28T10:28:45;24.42;;;8.70;;
23119;SDS011;11729;50.836;4.330;2022-10-28T10:31:20;26.55;;;9.23;;
23119;SDS011;11729;50.836;4.330;2022-10-28T10:33:51;23.75;;;8.50;;
23119;SDS011;11729;50.836;4.330;2022-10-28T10:36:20;21.42;;;8.98;;
23119;SDS011;11729;50.836;4.330;2022-10-28T10:38:52;25.25;;;8.65;;
23119;SDS011;11729;50.836;4.330;2022-10-28T10:43:59;22.48;;;8.15;;
23119;SDS011;11729;50.836;4.330;2022-10-28T10:46:25;24.38;;;8.02;;
23119;SDS011;11729;50.836;4.330;2022-10-28T10:54:18;21.90;;;7.55;;
23119;SDS011;11729;50.836;4.330;2022-10-28T10:56:44;22.83;;;7.47;;
23119;SDS011;11729;50.836;4.330;2022-10-28T10:59:23;27.20;;;8.23;;
23119;SDS011;11729;50.836;4.330;2022-10-28T11:01:54;24.10;;;7.90;;
23119;SDS011;11729;50.836;4.330;2022-10-28T11:04:22;22.90;;;8.00;;
23119;SDS011;11729;50.836;4.330;2022-10-28T11:06:51;16.08;;;6.88;;
23119;SDS011;11729;50.836;4.330;2022-10-28T11:09:30;16.90;;;7.00;;
23119;SDS011;11729;50.836;4.330;2022-10-28T11:11:59;22.02;;;7.40;;
23119;SDS011;11729;50.836;4.330;2022-10-28T11:14:28;22.40;;;7.55;;
23119;SDS011;11729;50.836;4.330;2022-10-28T11:16:57;24.67;;;7.82;;
23119;SDS011;11729;50.836;4.330;2022-10-28T11:19:33;15.50;;;7.00;;
23119;SDS011;11729;50.836;4.330;2022-10-28T11:24:38;22.02;;;7.72;;
23119;SDS011;11729;50.836;4.330;2022-10-28T11:27:40;18.98;;;7.43;;
23119;SDS011;11729;50.836;4.330;2022-10-28T11:30:31;21.30;;;7.35;;
23119;SDS011;11729;50.836;4.330;2022-10-28T11:35:44;19.17;;;7.45;;
23119;SDS011;11729;50.836;4.330;2022-10-28T11:41:18;27.30;;;7.70;;
23119;SDS011;11729;50.836;4.330;2022-10-28T11:43:54;16.85;;;8.15;;
23119;SDS011;11729;50.836;4.330;2022-10-28T11:49:46;22.13;;;7.60;;
23119;SDS011;11729;50.836;4.330;2022-10-28T11:55:21;23.70;;;7.50;;
23119;SDS011;11729;50.836;4.330;2022-10-28T12:01:05;17.60;;;7.55;;
23119;SDS011;11729;50.836;4.330;2022-10-28T12:04:02;24.65;;;8.50;;
23119;SDS011;11729;50.836;4.330;2022-10-28T12:07:08;15.88;;;7.25;;
23119;SDS011;11729;50.836;4.330;2022-10-28T12:12:49;25.67;;;8.15;;
23119;SDS011;11729;50.836;4.330;2022-10-28T12:20:58;22.33;;;7.25;;
23119;SDS011;11729;50.836;4.330;2022-10-28T12:23:32;20.77;;;7.55;;
23119;SDS011;11729;50.836;4.330;2022-10-28T12:26:02;15.55;;;7.10;;
23119;SDS011;11729;50.836;4.330;2022-10-28T12:28:44;14.98;;;7.20;;
23119;SDS011;11729;50.836;4.330;2022-10-28T12:31:16;19.50;;;7.43;;
23119;SDS011;11729;50.836;4.330;2022-10-28T12:33:48;20.13;;;8.27;;
23119;SDS011;11729;50.836;4.330;2022-10-28T12:44:12;20.45;;;6.68;;
23119;SDS011;11729;50.836;4.330;2022-10-28T12:46:51;16.40;;;7.47;;
23119;SDS011;11729;50.836;4.330;2022-10-28T12:57:41;24.08;;;7.32;;
23119;SDS011;11729;50.836;4.330;2022-10-28T13:00:21;18.30;;;6.97;;
23119;SDS011;11729;50.836;4.330;2022-10-28T13:03:04;17.40;;;7.05;;
23119;SDS011;11729;50.836;4.330;2022-10-28T13:05:37;19.65;;;7.28;;
23119;SDS011;11729;50.836;4.330;2022-10-28T13:08:11;20.60;;;7.40;;
23119;SDS011;11729;50.836;4.330;2022-10-28T13:19:13;17.65;;;7.10;;
23119;SDS011;11729;50.836;4.330;2022-10-28T13:27:01;19.20;;;7.07;;
23119;SDS011;11729;50.836;4.330;2022-10-28T13:31:55;21.38;;;7.03;;
23119;SDS011;11729;50.836;4.330;2022-10-28T13:34:28;20.08;;;7.05;;
23119;SDS011;11729;50.836;4.330;2022-10-28T13:36:57;20.80;;;7.35;;
23119;SDS011;11729;50.836;4.330;2022-10-28T13:44:50;18.80;;;7.18;;
23119;SDS011;11729;50.836;4.330;2022-10-28T13:47:30;16.27;;;7.53;;
23119;SDS011;11729;50.836;4.330;2022-10-28T13:52:32;27.30;;;7.90;;
23119;SDS011;11729;50.836;4.330;2022-10-28T13:57:45;19.17;;;7.43;;
23119;SDS011;11729;50.836;4.330;2022-10-28T14:02:45;15.40;;;7.55;;
23119;SDS011;11729;50.836;4.330;2022-10-28T14:05:13;19.85;;;7.13;;
23119;SDS011;11729;50.836;4.330;2022-10-28T14:07:57;19.77;;;7.95;;
23119;SDS011;11729;50.836;4.330;2022-10-28T14:10:31;17.13;;;7.20;;
23119;SDS011;11729;50.836;4.330;2022-10-28T14:13:02;26.30;;;7.65;;
23119;SDS011;11729;50.836;4.330;2022-10-28T14:15:38;21.13;;;7.55;;
23119;SDS011;11729;50.836;4.330;2022-10-28T14:31:35;19.23;;;7.72;;
23119;SDS011;11729;50.836;4.330;2022-10-28T14:39:05;19.45;;;7.53;;
23119;SDS011;11729;50.836;4.330;2022-10-28T14:50:20;23.10;;;7.97;;
23119;SDS011;11729;50.836;4.330;2022-10-28T14:53:07;19.90;;;8.30;;
23119;SDS011;11729;50.836;4.330;2022-10-28T14:55:43;15.25;;;7.47;;
23119;SDS011;11729;50.836;4.330;2022-10-28T14:58:21;24.95;;;8.20;;
23119;SDS011;11729;50.836;4.330;2022-10-28T15:01:33;17.27;;;8.35;;
23119;SDS011;11729;50.836;4.330;2022-10-28T15:06:45;21.52;;;8.90;;
23119;SDS011;11729;50.836;4.330;2022-10-28T15:09:17;23.67;;;8.65;;
23119;SDS011;11729;50.836;4.330;2022-10-28T15:11:59;17.85;;;7.88;;
23119;SDS011;11729;50.836;4.330;2022-10-28T15:14:36;20.70;;;8.93;;
23119;SDS011;11729;50.836;4.330;2022-10-28T15:17:12;19.15;;;7.30;;
23119;SDS011;11729;50.836;4.330;2022-10-28T15:19:40;18.25;;;8.13;;
23119;SDS011;11729;50.836;4.330;2022-10-28T15:22:14;28.63;;;8.13;;
23119;SDS011;11729;50.836;4.330;2022-10-28T15:24:40;21.48;;;7.95;;
23119;SDS011;11729;50.836;4.330;2022-10-28T15:27:08;20.65;;;8.65;;
23119;SDS011;11729;50.836;4.330;2022-10-28T15:29:36;24.15;;;8.32;;
23119;SDS011;11729;50.836;4.330;2022-10-28T15:32:09;26.58;;;8.80;;
23119;SDS011;11729;50.836;4.330;2022-10-28T15:34:48;22.10;;;8.38;;
23119;SDS011;11729;50.836;4.330;2022-10-28T15:37:18;26.13;;;8.48;;
23119;SDS011;11729;50.836;4.330;2022-10-28T15:39:46;20.00;;;7.55;;
23119;SDS011;11729;50.836;4.330;2022-10-28T15:42:30;16.23;;;7.28;;
23119;SDS011;11729;50.836;4.330;2022-10-28T15:45:19;17.95;;;7.72;;
23119;SDS011;11729;50.836;4.330;2022-10-28T15:47:48;17.23;;;7.80;;
23119;SDS011;11729;50.836;4.330;2022-10-28T15:52:43;20.10;;;8.65;;
23119;SDS011;11729;50.836;4.330;2022-10-28T15:57:47;23.23;;;7.88;;
23119;SDS011;11729;50.836;4.330;2022-10-28T16:07:55;21.90;;;8.90;;
23119;SDS011;11729;50.836;4.330;2022-10-28T16:10:21;26.27;;;8.82;;
23119;SDS011;11729;50.836;4.330;2022-10-28T16:12:47;17.38;;;8.60;;
23119;SDS011;11729;50.836;4.330;2022-10-28T16:15:13;26.23;;;8.18;;
23119;SDS011;11729;50.836;4.330;2022-10-28T16:17:40;24.50;;;8.15;;
23119;SDS011;11729;50.836;4.330;2022-10-28T16:20:14;16.35;;;7.97;;
23119;SDS011;11729;50.836;4.330;2022-10-28T16:22:44;15.85;;;8.00;;
23119;SDS011;11729;50.836;4.330;2022-10-28T16:25:14;19.60;;;8.52;;
23119;SDS011;11729;50.836;4.330;2022-10-28T16:27:44;27.00;;;8.20;;
23119;SDS011;11729;50.836;4.330;2022-10-28T16:30:11;26.58;;;9.02;;
23119;SDS011;11729;50.836;4.330;2022-10-28T16:32:55;25.67;;;8.07;;
23119;SDS011;11729;50.836;4.330;2022-10-28T16:35:21;18.60;;;8.73;;
23119;SDS011;11729;50.836;4.330;2022-10-28T16:37:48;18.23;;;8.55;;
23119;SDS011;11729;50.836;4.330;2022-10-28T16:40:15;18.42;;;8.40;;
23119;SDS011;11729;50.836;4.330;2022-10-28T16:42:41;25.08;;;8.52;;
23119;SDS011;11729;50.836;4.330;2022-10-28T16:45:13;18.95;;;8.40;;
23119;SDS011;11729;50.836;4.330;2022-10-28T16:47:41;19.73;;;8.40;;
23119;SDS011;11729;50.836;4.330;2022-10-28T16:50:07;23.30;;;9.18;;
23119;SDS011;11729;50.836;4.330;2022-10-28T16:52:33;15.77;;;8.63;;
23119;SDS011;11729;50.836;4.330;2022-10-28T16:54:59;22.95;;;8.93;;
23119;SDS011;11729;50.836;4.330;2022-10-28T16:57:25;21.33;;;8.68;;
23119;SDS011;11729;50.836;4.330;2022-10-28T16:59:51;24.50;;;9.25;;
23119;SDS011;11729;50.836;4.330;2022-10-28T17:02:27;22.60;;;9.23;;
23119;SDS011;11729;50.836;4.330;2022-10-28T17:04:55;18.77;;;9.50;;
23119;SDS011;11729;50.836;4.330;2022-10-28T17:07:21;19.10;;;8.95;;
23119;SDS011;11729;50.836;4.330;2022-10-28T17:09:47;26.38;;;9.70;;
23119;SDS011;11729;50.836;4.330;2022-10-28T17:12:17;27.13;;;10.48;;
23119;SDS011;11729;50.836;4.330;2022-10-28T17:14:45;19.73;;;10.10;;
23119;SDS011;11729;50.836;4.330;2022-10-28T17:17:11;30.35;;;12.50;;
23119;SDS011;11729;50.836;4.330;2022-10-28T17:19:37;19.25;;;10.00;;
23119;SDS011;11729;50.836;4.330;2022-10-28T17:22:03;26.70;;;10.48;;
23119;SDS011;11729;50.836;4.330;2022-10-28T17:24:30;22.02;;;8.95;;
23119;SDS011;11729;50.836;4.330;2022-10-28T17:26:55;23.15;;;9.90;;
23119;SDS011;11729;50.836;4.330;2022-10-28T17:29:21;22.52;;;8.85;;
23119;SDS011;11729;50.836;4.330;2022-10-28T17:31:47;24.20;;;9.10;;
23119;SDS011;11729;50.836;4.330;2022-10-28T17:34:12;19.08;;;9.55;;
23119;SDS011;11729;50.836;4.330;2022-10-28T17:36:38;18.95;;;9.35;;
23119;SDS011;11729;50.836;4.330;2022-10-28T17:39:04;20.25;;;9.95;;
23119;SDS011;11729;50.836;4.330;2022-10-28T17:41:29;25.38;;;9.60;;
23119;SDS011;11729;50.836;4.330;2022-10-28T17:43:55;22.98;;;10.25;;
23119;SDS011;11729;50.836;4.330;2022-10-28T17:46:21;24.73;;;10.35;;
23119;SDS011;11729;50.836;4.330;2022-10-28T17:48:47;21.77;;;10.70;;
23119;SDS011;11729;50.836;4.330;2022-10-28T17:51:12;24.25;;;11.30;;
23119;SDS011;11729;50.836;4.330;2022-10-28T17:53:38;27.13;;;10.98;;
23119;SDS011;11729;50.836;4.330;2022-10-28T17:56:04;23.90;;;10.48;;
23119;SDS011;11729;50.836;4.330;2022-10-28T17:58:31;23.35;;;10.82;;
23119;SDS011;11729;50.836;4.330;2022-10-28T18:03:24;24.20;;;12.35;;